createdAt,value
2022-08-28T00:02:17.957Z,2.28
2022-08-28T00:07:20.146Z,1.90
2022-08-28T00:12:22.338Z,1.92
2022-08-28T00:17:24.626Z,2.03
2022-08-28T00:22:26.805Z,1.90
2022-08-28T00:27:47.672Z,1.90
2022-08-28T00:32:50.863Z,2.05
2022-08-28T00:37:54.970Z,2.08
2022-08-28T00:42:58.193Z,2.30
2022-08-28T00:48:01.252Z,2.00
2022-08-28T00:53:03.808Z,1.95
2022-08-28T00:58:06.900Z,2.08
2022-08-28T01:03:09.200Z,1.90
2022-08-28T01:08:11.675Z,1.90
2022-08-28T01:13:16.310Z,1.80
2022-08-28T01:18:20.295Z,2.10
2022-08-28T01:23:41.039Z,1.90
2022-08-28T01:28:44.294Z,2.00
2022-08-28T01:33:47.595Z,2.22
2022-08-28T01:38:56.059Z,1.77
2022-08-28T01:43:58.425Z,1.73
2022-08-28T01:49:01.479Z,1.90
2022-08-28T01:54:06.205Z,1.90
2022-08-28T01:59:10.303Z,1.45
2022-08-28T02:04:12.733Z,1.63
2022-08-28T02:09:15.031Z,1.83
2022-08-28T02:14:17.194Z,1.95
2022-08-28T02:19:20.868Z,1.63
2022-08-28T02:24:23.027Z,1.70
2022-08-28T02:29:27.202Z,1.98
2022-08-28T02:34:30.604Z,1.70
2022-08-28T02:39:32.813Z,1.60
2022-08-28T02:44:35.620Z,1.48
2022-08-28T02:49:38.196Z,1.67
2022-08-28T02:54:40.671Z,1.60
2022-08-28T02:59:44.051Z,1.88
2022-08-28T03:04:46.335Z,1.70
2022-08-28T03:09:49.381Z,1.75
2022-08-28T03:14:52.806Z,1.80
2022-08-28T03:19:54.973Z,1.60
2022-08-28T03:24:57.214Z,1.83
2022-08-28T03:29:59.346Z,1.73
2022-08-28T03:35:02.215Z,1.70
2022-08-28T03:40:06.339Z,1.77
2022-08-28T03:45:10.227Z,1.80
2022-08-28T03:50:12.991Z,1.88
2022-08-28T03:55:15.405Z,2.08
2022-08-28T04:00:19.226Z,2.00
2022-08-28T04:05:21.343Z,1.63
2022-08-28T04:10:27.281Z,1.73
2022-08-28T04:15:29.559Z,1.70
2022-08-28T04:20:31.760Z,2.03
2022-08-28T04:25:34.020Z,2.00
2022-08-28T04:30:36.547Z,2.17
2022-08-28T04:35:42.050Z,1.92
2022-08-28T04:40:44.674Z,1.73
2022-08-28T04:45:46.858Z,1.75
2022-08-28T04:50:50.451Z,1.98
2022-08-28T04:55:55.003Z,1.52
2022-08-28T05:00:58.066Z,1.60
2022-08-28T05:06:00.555Z,1.90
2022-08-28T05:11:33.558Z,2.00
2022-08-28T05:16:48.382Z,1.90
2022-08-28T05:21:51.289Z,1.90
2022-08-28T05:26:53.451Z,1.88
2022-08-28T05:31:55.849Z,1.90
2022-08-28T05:36:58.158Z,1.70
2022-08-28T05:42:00.456Z,1.88
2022-08-28T05:47:03.035Z,1.92
2022-08-28T05:52:05.617Z,1.88
2022-08-28T05:57:07.815Z,1.77
2022-08-28T06:02:10.024Z,1.70
2022-08-28T06:07:13.813Z,1.40
2022-08-28T06:12:16.701Z,1.50
2022-08-28T06:17:23.516Z,1.75
2022-08-28T06:22:25.950Z,2.00
2022-08-28T06:27:28.868Z,1.48
2022-08-28T06:32:31.130Z,1.60
2022-08-28T06:37:33.279Z,1.30
2022-08-28T06:42:35.403Z,1.63
2022-08-28T06:47:37.526Z,1.65
2022-08-28T06:52:39.672Z,1.40
2022-08-28T06:57:44.089Z,1.23
2022-08-28T07:02:46.338Z,1.40
2022-08-28T07:07:48.621Z,1.42
2022-08-28T07:12:51.417Z,1.45
2022-08-28T07:17:53.552Z,1.55
2022-08-28T07:22:59.551Z,1.77
2022-08-28T07:28:01.982Z,1.50
2022-08-28T07:33:04.156Z,1.50
2022-08-28T07:38:06.318Z,1.90
2022-08-28T07:43:27.363Z,1.75
2022-08-28T07:48:29.711Z,1.67
2022-08-28T07:53:36.199Z,1.85
2022-08-28T07:58:38.847Z,2.00
2022-08-28T08:03:40.982Z,2.00
2022-08-28T08:08:43.301Z,1.30
2022-08-28T08:13:47.532Z,1.85
2022-08-28T08:18:53.443Z,1.70
2022-08-28T08:23:56.370Z,1.80
2022-08-28T08:28:58.963Z,1.48
2022-08-28T08:34:03.766Z,2.22
2022-08-28T08:39:09.500Z,2.05
2022-08-28T08:44:22.378Z,1.80
2022-08-28T08:49:29.502Z,2.05
2022-08-28T08:54:31.872Z,2.00
2022-08-28T08:59:38.417Z,1.52
2022-08-28T09:04:52.249Z,1.80
2022-08-28T09:09:58.446Z,2.10
2022-08-28T09:15:10.593Z,1.85
2022-08-28T09:20:16.624Z,1.75
2022-08-28T09:25:56.498Z,1.60
2022-08-28T09:31:14.068Z,1.80
2022-08-28T09:36:28.103Z,1.50
2022-08-28T09:41:48.828Z,2.10
2022-08-28T09:46:52.332Z,2.03
2022-08-28T09:51:55.827Z,1.98
2022-08-28T09:56:58.626Z,1.60
2022-08-28T10:02:03.977Z,1.40
2022-08-28T10:07:37.085Z,1.58
2022-08-28T10:12:44.810Z,2.03
2022-08-28T10:17:47.418Z,1.50
2022-08-28T10:23:18.694Z,2.22
2022-08-28T10:28:29.618Z,1.70
2022-08-28T10:33:50.476Z,1.70
2022-08-28T10:39:18.629Z,1.50
2022-08-28T10:44:31.966Z,1.63
2022-08-28T10:49:47.041Z,1.83
2022-08-28T10:54:49.285Z,1.83
2022-08-28T10:59:53.399Z,1.52
2022-08-28T11:04:58.643Z,1.50
2022-08-28T11:10:18.694Z,1.08
2022-08-28T11:15:23.891Z,1.40
2022-08-28T11:20:29.520Z,1.35
2022-08-28T11:25:45.428Z,1.45
2022-08-28T11:31:05.562Z,1.50
2022-08-28T11:36:19.847Z,3.17
2022-08-28T11:41:38.482Z,1.65
2022-08-28T11:46:48.906Z,1.30
2022-08-28T11:52:09.819Z,1.95
2022-08-28T11:57:22.127Z,1.52
2022-08-28T12:02:39.441Z,1.45
2022-08-28T12:07:45.128Z,1.10
2022-08-28T12:17:51.355Z,1.00
2022-08-28T12:22:59.463Z,1.30
2022-08-28T12:28:22.739Z,0.90
2022-08-28T12:33:57.991Z,1.17
2022-08-28T12:39:00.522Z,1.23
2022-08-28T12:44:04.800Z,1.13
2022-08-28T12:49:31.984Z,0.90
2022-08-28T12:54:35.312Z,1.10
2022-08-28T12:59:45.845Z,1.48
2022-08-28T13:05:10.458Z,0.93
2022-08-28T13:10:24.612Z,0.80
2022-08-28T13:16:00.912Z,0.70
2022-08-28T13:21:32.679Z,0.77
2022-08-28T13:26:37.741Z,1.30
2022-08-28T13:31:40.068Z,1.17
2022-08-28T13:36:46.251Z,1.10
2022-08-28T13:41:53.564Z,0.82
2022-08-28T13:46:56.858Z,0.90
2022-08-28T13:52:01.474Z,0.80
2022-08-28T13:57:05.540Z,1.00
2022-08-28T14:02:30.697Z,0.90
2022-08-28T14:07:33.064Z,0.93
2022-08-28T14:12:35.198Z,1.10
2022-08-28T14:17:37.331Z,1.08
2022-08-28T14:22:39.480Z,1.35
2022-08-28T14:27:41.643Z,1.33
2022-08-28T14:32:43.773Z,1.25
2022-08-28T14:37:46.087Z,1.40
2022-08-28T14:42:48.281Z,1.20
2022-08-28T14:47:50.382Z,1.20
2022-08-28T14:52:52.513Z,1.20
2022-08-28T14:57:54.636Z,1.75
2022-08-28T15:03:10.129Z,1.42
2022-08-28T15:08:15.477Z,1.55
2022-08-28T15:18:19.588Z,1.55
2022-08-28T15:23:22.395Z,1.40
2022-08-28T15:28:24.561Z,1.00
2022-08-28T15:33:27.334Z,1.13
2022-08-28T15:38:49.489Z,1.40
2022-08-28T15:43:57.020Z,1.38
2022-08-28T15:49:00.483Z,1.35
2022-08-28T15:54:03.329Z,1.10
2022-08-28T15:59:05.731Z,1.30
2022-08-28T16:04:08.203Z,1.52
2022-08-28T16:09:11.113Z,1.15
2022-08-28T16:14:16.855Z,1.30
2022-08-28T16:19:22.662Z,1.50
2022-08-28T16:24:24.820Z,1.20
2022-08-28T16:29:27.164Z,1.17
2022-08-28T16:34:31.514Z,1.15
2022-08-28T16:39:33.830Z,1.60
2022-08-28T16:44:37.012Z,1.52
2022-08-28T16:49:39.185Z,1.35
2022-08-28T16:54:48.450Z,1.52
2022-08-28T16:59:53.163Z,1.40
2022-08-28T17:05:00.488Z,1.80
2022-08-28T17:10:03.864Z,1.77
2022-08-28T17:15:07.479Z,1.80
2022-08-28T17:20:31.010Z,1.52
2022-08-28T17:25:33.304Z,1.85
2022-08-28T17:30:35.516Z,1.75
2022-08-28T17:35:41.804Z,1.75
2022-08-28T17:40:44.539Z,2.45
2022-08-28T17:45:46.735Z,2.80
2022-08-28T17:50:48.830Z,2.78
2022-08-28T17:55:50.979Z,2.88
2022-08-28T18:00:53.176Z,3.17
2022-08-28T18:05:55.748Z,2.97
2022-08-28T18:10:57.919Z,2.80
2022-08-28T18:16:00.740Z,2.53
2022-08-28T18:21:02.958Z,2.95
2022-08-28T18:26:05.438Z,2.83
2022-08-28T18:31:08.288Z,2.10
2022-08-28T18:36:12.847Z,2.42
2022-08-28T18:41:15.263Z,2.88
2022-08-28T18:46:19.815Z,3.00
2022-08-28T18:51:22.274Z,3.28
2022-08-28T18:56:24.433Z,3.08
2022-08-28T19:06:33.035Z,3.67
2022-08-28T19:11:36.303Z,2.60
2022-08-28T19:16:39.463Z,3.10
2022-08-28T19:21:41.645Z,3.83
2022-08-28T19:26:50.817Z,3.40
2022-08-28T19:31:53.012Z,2.65
2022-08-28T19:36:55.505Z,2.90
2022-08-28T19:41:57.679Z,2.40
2022-08-28T19:46:59.774Z,2.03
2022-08-28T19:52:03.292Z,2.47
2022-08-28T19:57:06.868Z,2.35
2022-08-28T20:02:09.808Z,3.13
2022-08-28T20:07:11.906Z,2.00
2022-08-28T20:12:14.690Z,2.33
2022-08-28T20:17:18.672Z,2.67
2022-08-28T20:22:20.799Z,2.50
2022-08-28T20:27:22.970Z,2.50
2022-08-28T20:32:25.076Z,2.53
2022-08-28T20:37:27.329Z,2.13
2022-08-28T20:42:31.794Z,1.90
2022-08-28T20:47:34.142Z,1.98
2022-08-28T20:52:36.475Z,2.35
2022-08-28T20:57:39.760Z,2.40
2022-08-28T21:02:41.946Z,1.80
2022-08-28T21:07:44.069Z,2.30
2022-08-28T21:12:46.241Z,2.20
2022-08-28T21:17:48.386Z,1.85
2022-08-28T21:22:51.071Z,1.77
2022-08-28T21:27:53.324Z,2.05
2022-08-28T21:32:55.473Z,2.13
2022-08-28T21:37:57.782Z,2.17
2022-08-28T21:42:59.903Z,2.60
2022-08-28T21:48:02.635Z,4.13
2022-08-28T21:53:05.267Z,3.92
2022-08-28T21:58:07.377Z,4.05
2022-08-28T22:03:11.526Z,4.20
2022-08-28T22:08:14.886Z,3.90
2022-08-28T22:13:17.485Z,3.38
2022-08-28T22:18:20.009Z,3.30
2022-08-28T22:23:22.140Z,3.03
2022-08-28T22:28:24.361Z,3.03
2022-08-28T22:33:26.732Z,2.88
2022-08-28T22:38:29.715Z,2.80
2022-08-28T22:43:32.402Z,3.03
2022-08-28T22:48:35.452Z,2.58
2022-08-28T22:53:37.708Z,2.72
2022-08-28T22:58:40.549Z,2.40
2022-08-28T23:03:42.985Z,2.40
2022-08-28T23:08:45.244Z,2.47
2022-08-28T23:13:48.677Z,2.88
2022-08-28T23:19:08.643Z,2.58
2022-08-28T23:24:16.139Z,2.47
2022-08-28T23:29:18.481Z,2.40
2022-08-28T23:34:21.019Z,2.45
2022-08-28T23:39:24.442Z,2.28
2022-08-28T23:44:29.974Z,2.35
2022-08-28T23:49:33.411Z,2.25
2022-08-28T23:54:35.564Z,2.60
2022-08-28T23:59:37.679Z,2.50
